createdAt,value
2022-08-29T00:04:16.685Z,13.8
2022-08-29T00:09:14.587Z,13.8
2022-08-29T00:14:15.507Z,13.8
2022-08-29T00:19:10.610Z,13.7
2022-08-29T00:24:08.660Z,13.6
2022-08-29T00:29:06.799Z,13.5
2022-08-29T00:34:04.932Z,13.4
2022-08-29T00:39:03.039Z,13.5
2022-08-29T00:44:00.914Z,13.4
2022-08-29T00:48:58.868Z,13.3
2022-08-29T00:53:57.014Z,13.4
2022-08-29T00:58:55.112Z,13.3
2022-08-29T01:03:53.206Z,13.2
2022-08-29T01:08:57.176Z,13.2
2022-08-29T01:13:49.165Z,13.2
2022-08-29T01:18:47.184Z,13.1
2022-08-29T01:23:45.237Z,13.1
2022-08-29T01:28:43.060Z,13.1
2022-08-29T01:33:41.332Z,13.1
2022-08-29T01:38:39.256Z,13
2022-08-29T01:43:37.060Z,13
2022-08-29T01:48:35.017Z,13
2022-08-29T01:53:32.927Z,13
2022-08-29T01:58:30.859Z,13
2022-08-29T02:03:28.742Z,12.9
2022-08-29T02:08:26.704Z,12.9
2022-08-29T02:13:24.749Z,12.8
2022-08-29T02:18:22.809Z,12.9
2022-08-29T02:23:30.402Z,12.9
2022-08-29T02:28:18.754Z,12.9
2022-08-29T02:33:16.707Z,12.9
2022-08-29T02:38:14.862Z,12.8
2022-08-29T02:43:12.937Z,12.8
2022-08-29T02:48:11.087Z,12.9
2022-08-29T02:53:08.998Z,12.9
2022-08-29T02:58:06.918Z,12.9
2022-08-29T03:03:05.172Z,12.9
2022-08-29T03:08:02.887Z,12.9
2022-08-29T03:13:00.900Z,12.9
2022-08-29T03:17:59.111Z,13
2022-08-29T03:22:57.247Z,13
2022-08-29T03:27:55.481Z,13.1
2022-08-29T03:32:53.682Z,13.1
2022-08-29T03:37:51.738Z,13.1
2022-08-29T03:42:49.852Z,13.1
2022-08-29T03:47:47.945Z,13.2
2022-08-29T03:52:46.268Z,13.2
2022-08-29T03:57:44.446Z,13.2
2022-08-29T04:02:42.600Z,13.2
2022-08-29T04:07:40.635Z,13.4
2022-08-29T04:12:38.819Z,13.6
2022-08-29T04:17:37.072Z,13.7
2022-08-29T04:22:35.375Z,13.8
2022-08-29T04:27:33.908Z,14.6
2022-08-29T04:32:32.562Z,15.1
2022-08-29T04:37:31.094Z,15.6
2022-08-29T04:42:29.509Z,16.2
2022-08-29T04:47:27.754Z,16.5
2022-08-29T04:52:26.018Z,16.9
2022-08-29T04:57:25.124Z,18.2
2022-08-29T05:02:23.668Z,18.7
2022-08-29T05:07:22.232Z,19.6
2022-08-29T05:12:20.738Z,20.2
2022-08-29T05:17:19.696Z,21.3
2022-08-29T05:22:18.741Z,22.2
2022-08-29T05:27:18.038Z,23.9
2022-08-29T05:32:16.855Z,24.4
2022-08-29T05:37:15.491Z,24.9
2022-08-29T05:42:13.193Z,23.7
2022-08-29T05:47:09.109Z,22.1
2022-08-29T05:52:06.403Z,21
2022-08-29T05:57:03.890Z,20.5
2022-08-29T06:02:01.582Z,20.4
2022-08-29T06:06:59.321Z,20.1
2022-08-29T06:11:57.239Z,20.2
2022-08-29T06:16:57.555Z,23.5
2022-08-29T06:21:56.480Z,23.1
2022-08-29T06:26:54.949Z,25.8
2022-08-29T06:31:54.677Z,26.2
2022-08-29T06:36:52.319Z,24.6
2022-08-29T06:41:48.653Z,22.9
2022-08-29T06:46:46.957Z,24
2022-08-29T06:51:45.876Z,24.9
2022-08-29T06:56:45.290Z,26.3
2022-08-29T07:01:47.395Z,31.5
2022-08-29T07:06:47.541Z,32.6
2022-08-29T07:11:43.735Z,31.1
2022-08-29T07:16:40.664Z,31.5
2022-08-29T07:21:42.534Z,35
2022-08-29T07:26:41.824Z,36.8
2022-08-29T07:31:40.783Z,36.2
2022-08-29T07:36:38.707Z,35.8
2022-08-29T07:41:35.771Z,35.7
2022-08-29T07:46:33.672Z,35.3
2022-08-29T07:51:32.106Z,37.4
2022-08-29T07:56:26.904Z,31.8
2022-08-29T08:01:23.645Z,30.5
2022-08-29T08:06:18.720Z,28.7
2022-08-29T08:11:20.562Z,31.2
2022-08-29T08:16:18.148Z,28.7
2022-08-29T08:21:14.970Z,28.1
2022-08-29T08:26:13.257Z,27.6
2022-08-29T08:31:11.329Z,28
2022-08-29T08:36:10.236Z,28.7
2022-08-29T08:41:08.861Z,28.6
2022-08-29T08:46:13.656Z,36.2
2022-08-29T08:51:14.050Z,36.8
2022-08-29T08:56:12.117Z,34.6
2022-08-29T09:01:07.908Z,31.9
2022-08-29T09:06:04.984Z,31.4
2022-08-29T09:11:05.190Z,37.4
2022-08-29T09:16:01.533Z,32.6
2022-08-29T09:20:57.581Z,31.5
2022-08-29T09:25:55.349Z,31.3
2022-08-29T09:30:53.495Z,31.6
2022-08-29T09:35:51.751Z,33.2
2022-08-29T09:40:54.641Z,37.9
2022-08-29T09:45:54.205Z,38.2
2022-08-29T09:50:52.527Z,39.7
2022-08-29T09:55:51.637Z,41
2022-08-29T10:00:48.524Z,40.2
2022-08-29T10:05:47.544Z,41
2022-08-29T10:10:42.319Z,37
2022-08-29T10:15:50.301Z,35.3
2022-08-29T10:20:35.752Z,35.4
2022-08-29T10:25:33.532Z,34.6
2022-08-29T10:30:33.129Z,37.5
2022-08-29T10:35:32.180Z,39.4
2022-08-29T10:40:30.528Z,36.9
2022-08-29T10:45:29.153Z,40.6
2022-08-29T10:50:43.415Z,39.7
2022-08-29T10:55:25.321Z,40.4
2022-08-29T11:00:23.117Z,41
2022-08-29T11:05:22.231Z,41
2022-08-29T11:10:20.445Z,41.5
2022-08-29T11:15:17.991Z,41.8
2022-08-29T11:20:16.267Z,42.8
2022-08-29T11:25:14.398Z,42.6
2022-08-29T11:30:12.489Z,42
2022-08-29T11:35:10.169Z,42.1
2022-08-29T11:40:04.851Z,36.8
2022-08-29T11:44:58.610Z,33
2022-08-29T11:49:55.233Z,32.5
2022-08-29T11:54:53.074Z,32.7
2022-08-29T11:59:51.375Z,32.9
2022-08-29T12:04:49.465Z,32.9
2022-08-29T12:09:47.188Z,33
2022-08-29T12:14:45.588Z,33.9
2022-08-29T12:19:44.380Z,34.8
2022-08-29T12:24:42.946Z,34.8
2022-08-29T12:29:41.024Z,34.5
2022-08-29T13:31:57.242Z,26.9
2022-08-29T13:36:54.687Z,26.8
2022-08-29T13:41:53.019Z,26.8
2022-08-29T13:46:51.903Z,27.5
2022-08-29T13:51:51.987Z,28.1
2022-08-29T13:56:50.353Z,28.8
2022-08-29T14:06:46.348Z,28
2022-08-29T14:11:44.076Z,27.1
2022-08-29T14:16:41.660Z,26.7
2022-08-29T14:21:38.987Z,25.8
2022-08-29T14:26:36.388Z,25.1
2022-08-29T14:31:35.103Z,24.8
2022-08-29T14:36:33.152Z,24.5
2022-08-29T14:41:31.179Z,24.3
2022-08-29T14:46:29.673Z,24.9
2022-08-29T14:51:27.869Z,25
2022-08-29T14:56:46.850Z,25.3
2022-08-29T15:01:24.724Z,24.3
2022-08-29T15:06:22.546Z,24.2
2022-08-29T15:11:20.396Z,24.3
2022-08-29T15:16:18.690Z,24.4
2022-08-29T15:21:16.506Z,24
2022-08-29T15:26:14.284Z,23.7
2022-08-29T15:31:12.201Z,23.7
2022-08-29T15:36:10.200Z,23.5
2022-08-29T15:41:08.408Z,23.4
2022-08-29T15:46:06.485Z,23.3
2022-08-29T15:51:04.627Z,23.3
2022-08-29T15:56:03.053Z,23.2
2022-08-29T16:01:01.521Z,23.3
2022-08-29T16:06:00.062Z,23.2
2022-08-29T16:10:58.200Z,23
2022-08-29T16:15:56.225Z,22.6
2022-08-29T16:20:56.738Z,22.1
2022-08-29T16:25:53.388Z,21.7
2022-08-29T16:30:50.231Z,21.2
2022-08-29T16:35:48.002Z,20.7
2022-08-29T16:40:45.715Z,20.2
2022-08-29T16:45:43.570Z,19.8
2022-08-29T16:50:41.285Z,19.4
2022-08-29T16:55:39.034Z,19
2022-08-29T17:00:37.422Z,18.8
2022-08-29T17:05:35.490Z,18.3
2022-08-29T17:10:33.459Z,18.1
2022-08-29T17:15:31.374Z,18
2022-08-29T17:20:29.342Z,17.9
2022-08-29T17:25:27.190Z,17.7
2022-08-29T17:30:25.208Z,17.6
2022-08-29T17:35:23.020Z,17.5
2022-08-29T17:40:20.821Z,17.3
2022-08-29T17:45:18.813Z,17.3
2022-08-29T17:50:16.843Z,17.3
2022-08-29T17:55:14.818Z,17.4
2022-08-29T18:00:12.997Z,17.4
2022-08-29T18:05:11.054Z,17.4
2022-08-29T18:10:09.145Z,17.3
2022-08-29T18:15:07.048Z,17.2
2022-08-29T18:20:05.178Z,17.2
2022-08-29T18:25:03.168Z,17.1
2022-08-29T18:30:01.265Z,17
2022-08-29T18:35:00.859Z,16.9
2022-08-29T18:39:57.096Z,16.7
2022-08-29T18:44:54.911Z,16.5
2022-08-29T18:49:52.776Z,16.3
2022-08-29T18:54:50.771Z,16
2022-08-29T18:59:48.727Z,16
2022-08-29T19:04:46.646Z,15.9
2022-08-29T19:09:44.551Z,15.8
2022-08-29T19:14:45.824Z,15.7
2022-08-29T19:19:40.808Z,15.6
2022-08-29T19:24:38.768Z,15.6
2022-08-29T19:29:36.799Z,15.6
2022-08-29T19:34:34.860Z,15.7
2022-08-29T19:39:32.848Z,15.9
2022-08-29T19:44:31.053Z,16
2022-08-29T19:49:29.278Z,15.9
2022-08-29T19:54:27.862Z,16
2022-08-29T19:59:26.120Z,16.1
2022-08-29T20:04:24.478Z,16.3
2022-08-29T20:09:22.686Z,16.2
2022-08-29T20:14:20.729Z,16.2
2022-08-29T20:19:19.236Z,16.2
2022-08-29T20:24:17.509Z,16.1
2022-08-29T20:29:15.875Z,16.1
2022-08-29T20:34:18.146Z,16.2
2022-08-29T20:39:15.408Z,16.2
2022-08-29T20:44:13.423Z,16.3
2022-08-29T20:49:11.418Z,16.2
2022-08-29T20:54:09.373Z,16.3
2022-08-29T20:59:07.390Z,16.2
2022-08-29T21:04:05.363Z,16.3
2022-08-29T21:09:03.659Z,16.3
2022-08-29T21:14:03.134Z,16.3
2022-08-29T21:19:01.314Z,16.2
2022-08-29T21:23:59.047Z,16.4
2022-08-29T21:28:57.096Z,16.3
2022-08-29T21:33:55.056Z,16.3
2022-08-29T21:38:53.050Z,16.4
2022-08-29T21:43:51.125Z,16.5
2022-08-29T21:48:50.291Z,16.6
2022-08-29T21:53:47.202Z,16.7
2022-08-29T21:58:45.311Z,16.7
2022-08-29T22:03:43.295Z,16.8
2022-08-29T22:08:41.680Z,17.2
2022-08-29T22:13:39.750Z,17.2
2022-08-29T22:18:37.810Z,17.2
2022-08-29T22:23:36.100Z,17.3
2022-08-29T22:28:34.057Z,17.2
2022-08-29T22:33:32.149Z,17.1
2022-08-29T22:38:30.001Z,17
2022-08-29T22:43:27.892Z,16.9
2022-08-29T22:48:25.797Z,16.9
2022-08-29T22:53:23.680Z,16.8
2022-08-29T22:58:21.853Z,16.8
2022-08-29T23:03:20.196Z,16.8
2022-08-29T23:08:17.895Z,16.6
2022-08-29T23:13:16.144Z,16.5
2022-08-29T23:18:14.104Z,16.3
2022-08-29T23:23:12.199Z,16.3
2022-08-29T23:28:10.313Z,16.2
2022-08-29T23:33:08.519Z,16.2
2022-08-29T23:38:07.626Z,16.2
2022-08-29T23:43:04.611Z,16.2
2022-08-29T23:48:02.739Z,16.3
2022-08-29T23:53:00.861Z,16.2
2022-08-29T23:57:58.749Z,16.3
